Time;durP1;ratioP1;P1;durP2;ratioP2;P2;SDS_P1;SDS_P2;PMS_P1;PMS_P2;Temp;Humidity;BMP_temperature;BMP_pressure;BME280_temperature;BME280_humidity;BME280_pressure;Samples;Min_cycle;Max_cycle;Signal;HPM_P1;HPM_P2
2022/12/15 00:40:07;;;;;;;9.38;6.45;;;8.30;78.90;;;;;;6095810;23;20017;-77
2022/12/15 00:42:33;;;;;;;9.30;6.05;;;8.30;78.70;;;;;;6094686;23;20011;-77
2022/12/15 00:45:00;;;;;;;8.85;6.10;;;8.30;78.80;;;;;;6120035;23;20010;-79
2022/12/15 00:47:25;;;;;;;9.65;6.55;;;8.30;78.80;;;;;;6097052;23;20013;-79
2022/12/15 01:20:17;;;;;;;10.00;6.75;;;8.30;79.00;;;;;;6095707;23;20009;-78
2022/12/15 01:22:46;;;;;;;8.80;6.35;;;8.30;79.00;;;;;;6094678;23;20006;-79
2022/12/15 01:25:14;;;;;;;9.25;6.30;;;8.30;78.90;;;;;;6094550;23;20066;-79
2022/12/15 01:27:39;;;;;;;9.38;6.20;;;8.30;78.80;;;;;;6094613;23;20003;-79
2022/12/15 01:30:07;;;;;;;9.63;6.63;;;8.30;78.80;;;;;;6095407;23;20126;-78
2022/12/15 01:32:33;;;;;;;9.75;6.15;;;8.30;78.90;;;;;;6094724;23;20007;-78
2022/12/15 01:34:58;;;;;;;8.93;6.18;;;8.30;78.80;;;;;;6098355;23;20002;-79
2022/12/15 01:37:24;;;;;;;9.85;6.32;;;8.30;78.80;;;;;;6094601;23;20093;-77
2022/12/15 01:42:33;;;;;;;8.80;5.75;;;8.30;78.70;;;;;;6097913;23;20013;-78
2022/12/15 01:45:40;;;;;;;8.30;5.40;;;8.30;78.80;;;;;;6120870;23;20077;-78
2022/12/15 01:48:11;;;;;;;9.27;6.03;;;8.30;78.80;;;;;;6097766;23;20009;-77
2022/12/15 01:50:42;;;;;;;9.18;6.07;;;8.30;78.80;;;;;;6097799;23;20061;-78
2022/12/15 01:53:09;;;;;;;9.35;6.55;;;8.30;78.90;;;;;;6120654;23;20085;-78
2022/12/15 01:55:37;;;;;;;8.73;6.10;;;8.30;78.90;;;;;;6098141;23;20006;-79
2022/12/15 01:58:05;;;;;;;8.98;5.80;;;8.30;79.00;;;;;;6096329;23;20002;-78
2022/12/15 02:00:32;;;;;;;9.25;6.40;;;8.30;78.90;;;;;;6098133;23;20120;-79
2022/12/15 02:02:59;;;;;;;8.25;5.60;;;8.30;78.90;;;;;;6099050;23;20081;-76
2022/12/15 02:05:25;;;;;;;10.05;6.32;;;8.30;79.00;;;;;;6097878;23;20028;-78
2022/12/15 02:07:51;;;;;;;8.20;5.82;;;8.30;78.90;;;;;;6097615;23;20403;-79
2022/12/15 02:10:17;;;;;;;8.80;5.78;;;8.30;78.80;;;;;;6097629;23;20010;-79
2022/12/15 02:12:58;;;;;;;9.35;6.28;;;8.30;78.90;;;;;;6098067;23;20005;-79
2022/12/15 02:15:47;;;;;;;9.35;6.25;;;8.30;78.80;;;;;;6096486;23;20354;-78
2022/12/15 02:19:11;;;;;;;9.95;6.10;;;8.30;78.80;;;;;;6096556;23;20343;-78
2022/12/15 02:21:45;;;;;;;8.48;5.82;;;8.30;78.80;;;;;;6041262;23;20431;-79
2022/12/15 02:24:51;;;;;;;9.18;5.82;;;8.30;78.90;;;;;;6096164;23;20331;-78
2022/12/15 02:27:54;;;;;;;9.32;6.00;;;8.30;78.90;;;;;;6095982;23;20010;-78
2022/12/15 02:30:33;;;;;;;8.65;5.55;;;8.30;79.00;;;;;;6095300;23;20006;-77
2022/12/15 02:33:12;;;;;;;8.77;6.07;;;8.30;78.90;;;;;;6096004;23;20456;-79
2022/12/15 02:35:52;;;;;;;9.43;6.18;;;8.30;78.90;;;;;;6097425;23;20340;-78
2022/12/15 02:38:29;;;;;;;9.23;6.00;;;8.30;78.90;;;;;;6097100;23;19999;-79
2022/12/15 02:40:59;;;;;;;8.98;6.15;;;8.30;78.90;;;;;;6095880;23;20006;-78
2022/12/15 02:43:26;;;;;;;9.63;6.38;;;8.30;78.80;;;;;;6095754;23;20014;-78
2022/12/15 02:46:15;;;;;;;8.98;6.07;;;8.30;78.70;;;;;;6097579;23;20034;-78
2022/12/15 02:49:13;;;;;;;9.38;5.90;;;8.30;78.80;;;;;;6095475;23;20003;-79
2022/12/15 02:51:56;;;;;;;8.70;5.60;;;8.30;78.70;;;;;;6097000;23;20007;-78
2022/12/15 02:54:38;;;;;;;9.38;5.93;;;8.30;78.60;;;;;;6095754;23;20009;-79
2022/12/15 02:57:45;;;;;;;9.38;6.43;;;8.30;78.60;;;;;;6097308;23;20058;-77
2022/12/15 03:00:13;;;;;;;9.23;5.88;;;8.30;78.60;;;;;;6055646;23;20006;-78
2022/12/15 03:02:44;;;;;;;9.55;6.35;;;8.30;78.70;;;;;;6094092;23;20093;-78
2022/12/15 03:05:11;;;;;;;8.77;5.93;;;8.30;78.60;;;;;;6097134;23;20050;-76
2022/12/15 03:07:37;;;;;;;13.55;6.57;;;8.30;78.60;;;;;;6097606;23;20036;-79
2022/12/15 03:10:06;;;;;;;9.07;5.65;;;8.30;78.70;;;;;;6096612;23;20352;-79
2022/12/15 03:12:31;;;;;;;10.90;6.35;;;8.30;78.70;;;;;;6097135;23;20002;-78
2022/12/15 03:14:57;;;;;;;7.78;5.53;;;8.30;78.60;;;;;;6097017;23;20025;-78
2022/12/15 03:17:23;;;;;;;8.95;6.00;;;8.30;78.70;;;;;;6097163;23;20009;-79
2022/12/15 03:19:48;;;;;;;8.52;5.88;;;8.30;78.70;;;;;;6095684;23;20009;-77
2022/12/15 03:22:14;;;;;;;7.97;5.50;;;8.30;78.70;;;;;;6095399;23;20006;-78
2022/12/15 03:24:40;;;;;;;8.57;5.50;;;8.30;78.60;;;;;;6119774;23;20003;-78
2022/12/15 03:27:05;;;;;;;9.88;5.72;;;8.30;78.70;;;;;;6095337;23;20062;-78
2022/12/15 03:29:31;;;;;;;8.30;5.60;;;8.30;78.60;;;;;;6094797;23;20019;-79
2022/12/15 03:31:56;;;;;;;8.85;5.40;;;8.30;78.80;;;;;;6095154;23;20006;-77
2022/12/15 03:34:22;;;;;;;9.02;5.60;;;8.30;78.80;;;;;;6095269;23;20003;-78
2022/12/15 03:36:47;;;;;;;9.68;5.97;;;8.30;78.70;;;;;;6096699;23;20054;-79
2022/12/15 03:39:13;;;;;;;8.13;5.70;;;8.30;78.70;;;;;;6095066;23;20427;-79
2022/12/15 03:41:40;;;;;;;8.73;5.80;;;8.20;78.60;;;;;;6095087;23;20006;-79
2022/12/15 03:44:06;;;;;;;10.48;5.85;;;8.30;78.60;;;;;;6095129;23;20006;-78
2022/12/15 03:46:31;;;;;;;8.95;5.80;;;8.30;78.80;;;;;;6095133;23;20069;-78
2022/12/15 03:48:57;;;;;;;9.57;5.93;;;8.30;78.60;;;;;;6094570;23;20011;-78
2022/12/15 03:51:23;;;;;;;8.60;5.70;;;8.30;78.70;;;;;;6096430;23;20007;-79
2022/12/15 03:53:49;;;;;;;8.60;5.60;;;8.30;78.70;;;;;;6096452;23;20002;-78
2022/12/15 03:56:15;;;;;;;8.88;6.00;;;8.20;78.60;;;;;;6095860;23;20002;-77
2022/12/15 03:58:41;;;;;;;9.02;6.07;;;8.30;78.70;;;;;;6096324;23;20094;-78
2022/12/15 04:01:12;;;;;;;8.45;5.63;;;8.30;78.70;;;;;;6093420;23;20038;-77
2022/12/15 04:03:37;;;;;;;8.63;5.97;;;8.30;78.80;;;;;;6096386;23;20057;-78
2022/12/15 04:06:03;;;;;;;8.60;5.53;;;8.30;78.70;;;;;;6119358;23;20050;-77
2022/12/15 04:08:28;;;;;;;8.75;5.78;;;8.30;78.70;;;;;;6094583;23;20115;-79
2022/12/15 04:10:54;;;;;;;8.48;5.47;;;8.30;78.80;;;;;;6096157;23;19998;-78
2022/12/15 04:13:20;;;;;;;9.00;5.53;;;8.30;78.70;;;;;;6094922;23;20085;-77
2022/12/15 04:15:46;;;;;;;8.27;5.60;;;8.30;78.90;;;;;;6096627;23;20037;-78
2022/12/15 04:18:11;;;;;;;8.30;5.10;;;8.20;78.60;;;;;;6094439;23;20727;-77
2022/12/15 04:20:38;;;;;;;8.70;5.88;;;8.30;78.80;;;;;;6094779;23;20017;-79
2022/12/15 04:23:06;;;;;;;8.43;5.63;;;8.30;78.80;;;;;;6096462;23;20003;-78
2022/12/15 05:31:50;;;;;;;8.63;5.63;;;8.20;78.70;;;;;;6097879;23;20032;-77
2022/12/15 05:34:24;;;;;;;8.80;5.30;;;8.20;78.80;;;;;;6121038;23;20009;-79
2022/12/15 05:36:50;;;;;;;8.57;5.72;;;8.30;78.80;;;;;;6098332;23;20086;-78
2022/12/15 05:39:16;;;;;;;9.00;5.60;;;8.20;78.70;;;;;;6099130;23;19999;-78
2022/12/15 05:41:42;;;;;;;8.73;5.68;;;8.20;78.60;;;;;;6098782;23;20014;-78
2022/12/15 05:44:08;;;;;;;8.10;5.53;;;8.30;78.70;;;;;;6096894;23;20011;-77
2022/12/15 05:46:34;;;;;;;9.43;6.20;;;8.30;78.60;;;;;;6099507;23;20009;-78
2022/12/15 05:49:03;;;;;;;8.57;5.97;;;8.30;78.80;;;;;;6099056;23;20002;-78
2022/12/15 05:51:29;;;;;;;8.18;5.63;;;8.20;78.60;;;;;;6096019;23;20108;-78
2022/12/15 05:53:54;;;;;;;8.60;5.57;;;8.20;78.60;;;;;;6097836;23;20077;-78
2022/12/15 05:56:20;;;;;;;7.95;5.38;;;8.20;78.50;;;;;;6120570;23;20002;-77
2022/12/15 05:58:45;;;;;;;8.90;6.07;;;8.20;78.70;;;;;;6096256;23;20371;-78
2022/12/15 06:01:16;;;;;;;8.88;5.85;;;8.20;78.60;;;;;;6096759;23;20037;-78
2022/12/15 06:03:42;;;;;;;8.40;5.65;;;8.20;78.80;;;;;;6097625;23;20014;-79
2022/12/15 06:06:09;;;;;;;8.48;5.47;;;8.20;78.90;;;;;;6098413;23;20003;-78
2022/12/15 06:08:37;;;;;;;9.38;6.00;;;8.30;78.80;;;;;;6098582;23;20097;-77
2022/12/15 06:11:03;;;;;;;8.10;5.22;;;8.30;79.00;;;;;;6097114;23;20150;-78
2022/12/15 06:13:31;;;;;;;8.43;5.43;;;8.30;79.00;;;;;;6097350;23;20002;-77
2022/12/15 06:16:02;;;;;;;8.63;5.70;;;8.30;78.90;;;;;;6095925;23;20077;-78
2022/12/15 06:18:30;;;;;;;9.48;5.72;;;8.30;79.00;;;;;;6096928;23;19998;-78
2022/12/15 06:20:58;;;;;;;8.65;5.63;;;8.30;78.80;;;;;;6096575;23;20089;-77
2022/12/15 06:23:24;;;;;;;8.20;5.32;;;8.30;78.60;;;;;;6095847;23;20006;-78
2022/12/15 06:25:50;;;;;;;8.70;5.90;;;8.30;78.70;;;;;;6095948;23;20388;-78
2022/12/15 06:28:22;;;;;;;8.20;5.85;;;8.30;78.70;;;;;;6097550;23;20006;-78
2022/12/15 06:30:48;;;;;;;;;;;8.30;78.60;;;;;;6122263;23;20339;-78
2022/12/15 06:33:14;;;;;;;9.48;5.60;;;8.30;78.70;;;;;;6098512;23;19901;-79
2022/12/15 06:35:39;;;;;;;10.15;6.05;;;8.30;78.60;;;;;;6097618;23;20010;-79
2022/12/15 06:38:05;;;;;;;8.05;5.20;;;8.30;78.60;;;;;;6096327;23;20439;-78
2022/12/15 06:40:30;;;;;;;8.77;5.63;;;8.30;78.80;;;;;;6095250;23;20050;-78
2022/12/15 06:42:56;;;;;;;8.65;5.68;;;8.30;78.60;;;;;;6097225;23;20003;-77
2022/12/15 06:45:21;;;;;;;9.05;6.10;;;8.30;78.60;;;;;;6095518;23;20010;-75
2022/12/15 06:47:47;;;;;;;8.40;5.38;;;8.20;78.60;;;;;;6095358;23;20428;-76
2022/12/15 06:50:13;;;;;;;9.70;5.90;;;8.20;78.60;;;;;;6118008;23;20006;-77
2022/12/15 06:52:39;;;;;;;8.95;5.88;;;8.20;78.90;;;;;;6094646;23;20081;-78
2022/12/15 06:55:05;;;;;;;7.78;5.30;;;8.20;78.90;;;;;;6096659;23;20053;-78
2022/12/15 06:57:30;;;;;;;8.93;6.00;;;8.20;78.90;;;;;;6097149;23;20003;-78
2022/12/15 06:59:56;;;;;;;8.27;5.70;;;8.20;79.00;;;;;;6094336;23;20030;-77
2022/12/15 07:02:21;;;;;;;12.05;6.05;;;8.20;79.10;;;;;;6095841;23;20344;-77
2022/12/15 07:04:47;;;;;;;8.25;5.53;;;8.20;79.10;;;;;;6094680;23;20013;-78
2022/12/15 07:07:12;;;;;;;7.72;5.00;;;8.10;79.10;;;;;;6095845;23;20006;-77
2022/12/15 07:09:38;;;;;;;8.35;5.50;;;8.20;79.20;;;;;;6094051;23;20399;-77
2022/12/15 07:12:04;;;;;;;8.50;5.70;;;8.20;79.20;;;;;;6095568;23;20438;-77
2022/12/15 07:14:29;;;;;;;8.80;5.95;;;8.10;79.10;;;;;;6094446;23;20101;-77
2022/12/15 07:16:55;;;;;;;8.85;5.70;;;8.10;79.00;;;;;;6096675;23;19998;-77
2022/12/15 07:19:20;;;;;;;8.82;5.80;;;8.20;79.80;;;;;;6095310;23;20003;-78
2022/12/15 07:21:46;;;;;;;8.35;5.57;;;8.10;79.00;;;;;;6095942;23;20007;-77
2022/12/15 07:24:11;;;;;;;10.02;5.88;;;8.10;79.10;;;;;;6118843;23;20021;-78
2022/12/15 07:26:38;;;;;;;8.38;5.43;;;8.10;79.10;;;;;;6095985;23;20013;-77
2022/12/15 07:29:03;;;;;;;8.75;5.80;;;8.10;79.20;;;;;;6094098;23;20014;-78
2022/12/15 07:31:30;;;;;;;7.47;5.05;;;8.10;79.20;;;;;;6094981;23;20006;-77
2022/12/15 07:33:57;;;;;;;7.40;4.95;;;8.10;79.10;;;;;;6095655;23;20423;-76
2022/12/15 07:36:22;;;;;;;8.50;5.43;;;8.10;79.10;;;;;;6095454;23;20002;-78
2022/12/15 07:38:48;;;;;;;9.15;5.75;;;8.10;79.10;;;;;;6096546;23;20038;-77
2022/12/15 07:41:14;;;;;;;8.63;5.88;;;8.10;79.20;;;;;;6095459;23;20006;-77
2022/12/15 07:43:40;;;;;;;8.27;5.63;;;8.10;79.10;;;;;;6095286;23;20014;-77
2022/12/15 07:46:05;;;;;;;8.30;5.70;;;8.10;79.00;;;;;;6095499;23;20328;-77
2022/12/15 07:48:32;;;;;;;7.57;5.03;;;8.10;79.10;;;;;;6093655;23;20431;-76
2022/12/15 07:50:58;;;;;;;9.27;5.95;;;8.10;79.10;;;;;;6095522;23;20060;-77
2022/12/15 07:53:25;;;;;;;8.88;5.78;;;8.10;79.00;;;;;;6093955;23;20093;-78
2022/12/15 07:55:58;;;;;;;8.73;5.38;;;8.10;79.10;;;;;;6095710;23;20069;-78
2022/12/15 07:58:25;;;;;;;8.15;5.50;;;8.10;79.10;;;;;;6094007;23;20014;-77
2022/12/15 08:00:51;;;;;;;8.70;5.55;;;8.10;79.10;;;;;;6096276;23;20061;-78
2022/12/15 08:03:17;;;;;;;8.52;5.70;;;8.10;79.10;;;;;;6095463;23;20081;-78
2022/12/15 08:05:43;;;;;;;8.63;5.70;;;8.10;79.00;;;;;;6095509;23;20034;-77
2022/12/15 08:08:10;;;;;;;8.10;5.70;;;8.10;79.00;;;;;;6093550;23;20006;-77
2022/12/15 08:10:38;;;;;;;9.48;6.18;;;8.10;79.10;;;;;;6093484;23;20011;-77
2022/12/15 08:13:03;;;;;;;8.55;5.80;;;8.10;79.00;;;;;;6095082;23;20003;-77
2022/12/15 08:15:29;;;;;;;8.38;5.63;;;8.10;79.00;;;;;;6093928;23;20090;-76
2022/12/15 08:17:54;;;;;;;8.73;5.53;;;8.10;79.00;;;;;;6093714;23;20053;-77
2022/12/15 08:20:20;;;;;;;8.63;5.78;;;8.10;79.50;;;;;;6094555;23;20073;-77
2022/12/15 08:22:45;;;;;;;8.43;5.47;;;8.10;79.00;;;;;;6095112;23;20007;-77
2022/12/15 08:25:11;;;;;;;9.30;5.70;;;8.10;79.00;;;;;;6093597;23;20013;-77
2022/12/15 08:27:36;;;;;;;8.30;5.65;;;8.10;78.90;;;;;;6093889;23;20316;-77
2022/12/15 08:30:02;;;;;;;9.07;5.88;;;8.10;78.90;;;;;;6094652;23;20010;-77
2022/12/15 08:32:28;;;;;;;8.80;5.80;;;8.10;79.00;;;;;;6095380;23;20002;-77
2022/12/15 08:34:53;;;;;;;9.10;6.03;;;8.10;79.00;;;;;;6095343;23;20058;-77
2022/12/15 08:37:19;;;;;;;8.82;6.13;;;8.20;79.00;;;;;;6094978;23;20009;-77
2022/12/15 08:39:44;;;;;;;9.38;6.03;;;8.10;78.90;;;;;;6094625;23;20001;-78
2022/12/15 08:42:10;;;;;;;8.27;5.30;;;8.10;78.90;;;;;;6093413;23;20006;-77
2022/12/15 08:44:35;;;;;;;8.32;5.45;;;8.10;78.90;;;;;;6095253;23;20046;-77
2022/12/15 08:47:01;;;;;;;8.60;5.57;;;8.20;79.00;;;;;;6093553;23;20013;-76
2022/12/15 08:49:27;;;;;;;8.55;5.68;;;8.10;78.90;;;;;;6093033;23;20010;-76
2022/12/15 08:51:52;;;;;;;8.43;5.47;;;8.20;78.90;;;;;;6093686;23;20049;-77
2022/12/15 08:54:19;;;;;;;8.07;5.80;;;8.20;78.80;;;;;;6095214;23;20006;-77
2022/12/15 08:56:44;;;;;;;7.93;5.97;;;8.20;78.80;;;;;;6095214;23;20006;-77
2022/12/15 08:59:10;;;;;;;8.43;5.35;;;8.20;78.80;;;;;;6094300;23;20003;-77
2022/12/15 09:01:38;;;;;;;8.45;5.90;;;8.20;78.80;;;;;;6093592;23;20082;-77
2022/12/15 09:04:04;;;;;;;7.60;5.22;;;8.20;78.70;;;;;;6093635;23;20051;-77
2022/12/15 09:06:34;;;;;;;8.23;5.57;;;8.20;78.70;;;;;;6093881;23;20011;-77
2022/12/15 09:09:03;;;;;;;8.00;5.47;;;8.20;78.70;;;;;;6093117;23;20037;-77
2022/12/15 09:11:29;;;;;;;8.68;6.15;;;8.20;78.70;;;;;;6097412;23;20002;-78
2022/12/15 09:13:55;;;;;;;8.35;5.90;;;8.20;78.70;;;;;;6096492;23;20058;-79
2022/12/15 09:16:21;;;;;;;8.50;6.07;;;8.30;78.70;;;;;;6095812;23;20003;-77
2022/12/15 09:18:50;;;;;;;8.25;5.50;;;8.30;78.70;;;;;;6093866;23;20041;-76
2022/12/15 09:21:17;;;;;;;8.77;5.80;;;8.30;78.60;;;;;;6094203;23;20096;-77
2022/12/15 09:23:47;;;;;;;8.77;5.60;;;8.30;78.60;;;;;;6095894;23;20042;-76
2022/12/15 09:26:14;;;;;;;9.07;5.82;;;8.30;78.60;;;;;;6094369;23;20021;-77
2022/12/15 09:28:40;;;;;;;8.73;5.80;;;8.30;78.60;;;;;;6090338;23;20347;-76
2022/12/15 09:31:14;;;;;;;8.65;5.53;;;8.30;78.50;;;;;;6095020;23;20501;-77
2022/12/15 09:33:41;;;;;;;8.75;5.53;;;8.30;78.60;;;;;;6095675;23;19998;-77
2022/12/15 09:36:07;;;;;;;8.63;5.80;;;8.40;78.50;;;;;;6093762;23;20450;-78
2022/12/15 09:38:34;;;;;;;8.50;5.75;;;8.30;78.50;;;;;;6093198;23;20003;-77
2022/12/15 09:41:11;;;;;;;8.80;6.00;;;8.30;78.50;;;;;;6095079;23;20074;-77
2022/12/15 09:43:57;;;;;;;8.23;5.30;;;8.30;78.40;;;;;;6093847;23;20097;-78
2022/12/15 09:46:29;;;;;;;8.43;5.50;;;8.40;78.50;;;;;;6095601;23;20006;-77
2022/12/15 09:48:58;;;;;;;8.15;5.40;;;8.40;78.40;;;;;;6093205;23;20006;-77
2022/12/15 09:51:38;;;;;;;8.52;5.75;;;8.40;78.30;;;;;;6095496;23;20010;-77
2022/12/15 09:54:03;;;;;;;8.27;5.60;;;8.40;78.40;;;;;;6095657;23;20443;-80
2022/12/15 09:56:45;;;;;;;8.48;5.65;;;8.40;78.20;;;;;;6094631;23;20053;-79
2022/12/15 09:59:36;;;;;;;8.38;5.63;;;8.40;78.00;;;;;;6096656;23;20033;-79
2022/12/15 10:02:36;;;;;;;8.68;5.70;;;8.50;77.90;;;;;;6096091;23;20010;-77
2022/12/15 10:05:22;;;;;;;9.43;6.00;;;8.50;77.80;;;;;;6096044;23;20045;-80
2022/12/15 10:07:49;;;;;;;8.95;6.00;;;8.50;77.70;;;;;;6097901;23;20010;-78
2022/12/15 10:10:39;;;;;;;12.52;6.07;;;8.50;77.50;;;;;;6096755;23;20045;-77
2022/12/15 10:13:22;;;;;;;9.93;6.05;;;8.60;77.50;;;;;;6095675;23;20013;-77
2022/12/15 10:16:04;;;;;;;10.77;6.47;;;8.60;77.30;;;;;;6097775;23;20069;-78
2022/12/15 10:18:55;;;;;;;10.43;6.70;;;8.60;77.10;;;;;;6097235;23;20003;-78
2022/12/15 10:21:21;;;;;;;;;;;8.60;77.00;;;;;;6096909;23;20403;-77
2022/12/15 10:23:48;;;;;;;10.55;6.75;;;8.60;77.00;;;;;;6096086;23;19901;-77
2022/12/15 10:26:19;;;;;;;10.07;7.07;;;8.60;76.70;;;;;;6097527;23;20085;-78
2022/12/15 10:29:10;;;;;;;10.20;7.38;;;8.60;76.70;;;;;;6094811;23;20332;-78
2022/12/15 10:31:43;;;;;;;10.88;7.32;;;8.70;76.60;;;;;;6099379;23;20003;-79
2022/12/15 10:34:36;;;;;;;11.95;7.57;;;8.70;76.50;;;;;;6100339;23;20069;-79
2022/12/15 10:37:02;;;;;;;10.60;6.72;;;8.70;76.30;;;;;;6093946;23;20006;-79
2022/12/15 10:39:39;;;;;;;10.38;7.30;;;8.80;76.20;;;;;;6095061;23;20074;-79
2022/12/15 10:42:16;;;;;;;10.82;7.10;;;8.90;76.10;;;;;;6096618;23;20006;-79
2022/12/15 10:44:44;;;;;;;10.65;6.75;;;8.90;75.80;;;;;;6097206;23;20061;-78
2022/12/15 10:47:22;;;;;;;10.95;7.30;;;9.00;75.50;;;;;;6097418;23;20700;-75
2022/12/15 10:49:47;;;;;;;10.93;7.45;;;9.00;75.20;;;;;;6095725;23;20022;-78
2022/12/15 10:52:34;;;;;;;11.93;7.78;;;9.10;75.10;;;;;;6094430;23;20010;-77
2022/12/15 10:55:00;;;;;;;10.35;7.25;;;9.10;74.70;;;;;;6096767;23;20063;-79
2022/12/15 10:57:30;;;;;;;10.57;7.47;;;9.20;74.70;;;;;;6096472;23;20002;-79
2022/12/15 11:00:17;;;;;;;11.55;7.75;;;9.20;74.90;;;;;;6095030;23;20006;-79
2022/12/15 11:02:42;;;;;;;11.68;8.27;;;9.30;74.20;;;;;;6094751;23;20011;-77
2022/12/15 11:05:19;;;;;;;12.48;8.80;;;9.40;73.70;;;;;;6096672;23;20013;-78
2022/12/15 11:07:51;;;;;;;12.55;7.95;;;9.40;73.50;;;;;;6096771;23;20006;-78
2022/12/15 11:10:20;;;;;;;10.30;7.32;;;9.40;73.40;;;;;;6095628;23;20062;-76
2022/12/15 11:13:15;;;;;;;11.57;8.45;;;9.50;73.20;;;;;;6096002;23;20339;-79
2022/12/15 11:15:42;;;;;;;10.80;8.00;;;9.50;73.10;;;;;;6096297;23;20034;-78
2022/12/15 11:18:14;;;;;;;11.90;7.90;;;9.50;73.00;;;;;;6096312;23;19998;-77
2022/12/15 11:20:46;;;;;;;12.07;8.55;;;9.60;72.80;;;;;;6096053;23;20009;-77
2022/12/15 11:23:23;;;;;;;11.00;8.13;;;9.60;73.10;;;;;;6096579;23;20387;-78
2022/12/15 11:26:04;;;;;;;10.88;7.95;;;9.60;72.60;;;;;;6094778;23;20106;-77
2022/12/15 11:28:44;;;;;;;11.75;8.52;;;9.50;72.70;;;;;;6093852;23;20097;-77
2022/12/15 11:31:46;;;;;;;11.40;8.35;;;9.60;73.20;;;;;;6095082;23;19999;-77
2022/12/15 11:34:18;;;;;;;11.25;8.30;;;9.60;73.80;;;;;;6007778;23;20031;-78
2022/12/15 11:37:16;;;;;;;11.45;8.15;;;9.50;74.10;;;;;;6082406;23;20065;-77
2022/12/15 11:40:03;;;;;;;10.65;7.88;;;9.50;74.30;;;;;;6093946;23;20006;-79
2022/12/15 11:42:47;;;;;;;11.48;8.40;;;9.50;74.70;;;;;;6095644;23;20455;-78
2022/12/15 11:45:37;;;;;;;11.45;8.18;;;9.50;74.10;;;;;;6094437;23;20006;-77
2022/12/15 11:48:21;;;;;;;11.50;8.27;;;9.50;74.50;;;;;;6095487;23;20021;-77
2022/12/15 11:50:56;;;;;;;11.43;8.57;;;9.60;74.40;;;;;;6095405;23;20395;-78
2022/12/15 11:53:43;;;;;;;10.60;8.35;;;9.50;75.10;;;;;;6093955;23;20470;-78
2022/12/15 11:56:31;;;;;;;12.02;9.00;;;9.50;74.20;;;;;;6094479;23;20097;-78
2022/12/15 11:59:29;;;;;;;11.35;8.27;;;9.50;74.30;;;;;;6095058;23;20073;-77
2022/12/15 12:02:19;;;;;;;11.52;8.68;;;9.50;74.20;;;;;;6095596;23;20455;-78
2022/12/15 12:05:06;;;;;;;11.77;8.43;;;9.50;73.80;;;;;;6094105;23;20010;-76
2022/12/15 12:07:43;;;;;;;10.75;8.10;;;9.50;73.60;;;;;;6095437;23;20424;-78
2022/12/15 12:10:14;;;;;;;12.75;9.18;;;9.50;73.30;;;;;;6093477;23;20054;-79
2022/12/15 12:12:49;;;;;;;11.95;8.57;;;9.50;73.40;;;;;;6095858;23;20010;-77
2022/12/15 12:15:33;;;;;;;12.10;9.00;;;9.50;73.70;;;;;;6094249;23;20006;-79
2022/12/15 12:18:19;;;;;;;11.40;8.45;;;9.60;74.50;;;;;;6095767;23;20078;-77
2022/12/15 12:20:50;;;;;;;12.55;8.48;;;9.60;74.10;;;;;;6095423;23;20435;-76
2022/12/15 12:23:29;;;;;;;13.15;8.80;;;9.60;74.20;;;;;;6095403;23;20470;-76
2022/12/15 12:26:42;;;;;;;11.48;8.57;;;9.70;74.20;;;;;;6093714;23;20057;-78
2022/12/15 12:29:31;;;;;;;11.38;8.57;;;9.70;73.70;;;;;;6006338;23;20019;-77
2022/12/15 12:32:20;;;;;;;11.23;8.57;;;9.70;73.90;;;;;;6093792;23;20003;-77
2022/12/15 12:35:14;;;;;;;11.85;8.60;;;9.70;73.70;;;;;;6093874;23;20005;-76
2022/12/15 12:37:42;;;;;;;12.80;9.02;;;9.70;73.50;;;;;;6093744;23;20011;-78
2022/12/15 12:40:43;;;;;;;12.98;8.95;;;9.70;73.80;;;;;;6094811;23;20022;-77
2022/12/15 12:43:14;;;;;;;11.77;8.70;;;9.70;73.80;;;;;;6083078;23;20470;-78
2022/12/15 12:45:56;;;;;;;12.05;8.88;;;9.70;73.10;;;;;;6095378;23;20006;-77
2022/12/15 12:48:43;;;;;;;12.60;9.20;;;9.70;73.90;;;;;;6093144;23;20006;-76
2022/12/15 12:51:29;;;;;;;10.85;8.20;;;9.70;74.80;;;;;;6095151;23;20041;-76
2022/12/15 12:53:56;;;;;;;11.38;8.57;;;9.70;73.60;;;;;;6088872;23;20002;-77
2022/12/15 12:56:44;;;;;;;11.80;8.63;;;9.60;73.80;;;;;;6094628;23;20003;-80
2022/12/15 12:59:28;;;;;;;11.35;8.32;;;9.60;73.90;;;;;;6095477;23;20002;-80
2022/12/15 13:02:18;;;;;;;12.48;9.20;;;9.50;73.80;;;;;;6095082;23;20005;-80
2022/12/15 13:04:50;;;;;;;10.67;8.53;;;9.50;73.90;;;;;;6079345;23;20084;-77
2022/12/15 13:07:30;;;;;;;11.77;8.52;;;9.50;74.10;;;;;;6094170;23;20242;-77
2022/12/15 13:10:07;;;;;;;12.70;9.00;;;9.40;73.70;;;;;;6094239;23;20010;-78
2022/12/15 13:12:48;;;;;;;11.43;8.52;;;9.40;74.10;;;;;;6094714;23;20018;-78
2022/12/15 13:15:38;;;;;;;12.00;8.63;;;9.40;73.80;;;;;;6093032;23;20007;-78
2022/12/15 13:18:06;;;;;;;12.77;9.63;;;9.40;73.70;;;;;;6094831;23;20604;-78
2022/12/15 13:20:34;;;;;;;13.57;9.70;;;9.30;73.40;;;;;;6093604;23;19999;-77
2022/12/15 13:23:18;;;;;;;12.43;9.40;;;9.30;73.40;;;;;;6095007;23;20442;-78
2022/12/15 13:25:45;;;;;;;12.10;9.15;;;9.30;73.60;;;;;;6093450;23;20007;-78
2022/12/15 13:28:25;;;;;;;13.57;9.88;;;9.30;73.70;;;;;;6094800;23;20002;-78
2022/12/15 13:31:17;;;;;;;13.38;9.50;;;9.20;73.80;;;;;;6093422;23;20439;-78
2022/12/15 13:33:51;;;;;;;12.75;9.05;;;9.20;74.00;;;;;;6093371;23;20021;-78
2022/12/15 13:36:36;;;;;;;12.40;9.05;;;9.20;74.00;;;;;;6093679;23;20002;-77
2022/12/15 13:39:23;;;;;;;13.07;9.52;;;9.10;74.10;;;;;;6094626;23;20006;-78
2022/12/15 13:41:50;;;;;;;13.05;9.48;;;9.10;74.20;;;;;;6094833;23;20032;-77
2022/12/15 13:44:43;;;;;;;12.32;9.68;;;9.10;74.30;;;;;;6097464;23;20016;-78
2022/12/15 13:47:19;;;;;;;12.10;9.20;;;9.10;74.40;;;;;;6096779;23;20006;-77
2022/12/15 13:49:56;;;;;;;13.38;9.50;;;9.00;74.40;;;;;;6094965;23;20086;-78
2022/12/15 13:52:22;;;;;;;12.27;9.65;;;9.00;74.60;;;;;;6096748;23;20010;-78
2022/12/15 13:54:55;;;;;;;12.20;8.82;;;9.00;74.60;;;;;;6096899;23;19998;-76
2022/12/15 13:57:23;;;;;;;12.82;9.63;;;9.00;74.70;;;;;;6097036;23;20046;-77
2022/12/15 13:59:56;;;;;;;11.70;8.82;;;9.00;74.70;;;;;;6094959;23;20006;-78
2022/12/15 14:02:23;;;;;;;12.95;10.05;;;9.00;74.80;;;;;;6096821;23;20077;-78
2022/12/15 14:05:10;;;;;;;13.70;9.75;;;8.90;74.80;;;;;;6089462;23;20098;-77
2022/12/15 14:07:35;;;;;;;15.88;10.35;;;8.90;74.80;;;;;;6096254;23;20435;-79
2022/12/15 14:10:05;;;;;;;13.68;9.50;;;8.90;74.80;;;;;;6095943;23;20122;-78
2022/12/15 14:12:30;;;;;;;14.27;9.68;;;8.90;74.90;;;;;;6094510;23;20011;-78
2022/12/15 14:14:56;;;;;;;13.90;10.20;;;8.90;74.90;;;;;;6095908;23;20122;-74
2022/12/15 14:17:21;;;;;;;13.57;10.27;;;8.90;75.00;;;;;;6094466;23;20102;-76
2022/12/15 14:19:49;;;;;;;13.23;9.88;;;8.90;75.00;;;;;;6094479;23;20014;-76
2022/12/15 14:22:25;;;;;;;12.45;9.45;;;8.80;75.00;;;;;;6094865;23;20010;-78
2022/12/15 14:24:52;;;;;;;13.25;10.10;;;8.80;75.10;;;;;;6096251;23;20339;-79
2022/12/15 14:27:26;;;;;;;15.15;10.15;;;8.80;75.20;;;;;;6094936;23;20033;-77
2022/12/15 14:30:12;;;;;;;13.88;10.02;;;8.80;75.20;;;;;;6095304;23;20356;-78
2022/12/15 14:32:39;;;;;;;13.50;10.02;;;8.80;75.80;;;;;;6094419;23;20017;-78
2022/12/15 14:35:05;;;;;;;12.48;9.32;;;8.80;75.20;;;;;;6094879;23;20033;-78
2022/12/15 14:37:32;;;;;;;12.75;9.63;;;8.80;75.30;;;;;;6096774;23;20501;-78
2022/12/15 14:39:57;;;;;;;14.00;9.90;;;8.70;75.20;;;;;;6096547;23;19995;-76
2022/12/15 14:42:26;;;;;;;13.50;10.18;;;8.70;75.30;;;;;;6119901;23;20077;-77
2022/12/15 14:44:52;;;;;;;12.75;9.80;;;8.70;75.20;;;;;;6097757;23;20002;-77
2022/12/15 14:47:25;;;;;;;13.73;10.05;;;8.70;75.20;;;;;;6096754;23;20033;-78
2022/12/15 14:49:53;;;;;;;13.07;9.82;;;8.70;75.20;;;;;;6097068;23;20029;-79
2022/12/15 14:52:26;;;;;;;13.52;10.02;;;8.70;75.30;;;;;;6096290;23;20010;-75
2022/12/15 14:55:22;;;;;;;12.75;9.40;;;8.70;75.30;;;;;;6097087;23;19998;-76
2022/12/15 14:57:51;;;;;;;13.95;10.52;;;8.70;75.30;;;;;;6095438;23;20007;-75
2022/12/15 15:00:33;;;;;;;20.17;12.95;;;8.60;75.10;;;;;;6096781;23;20424;-75
2022/12/15 15:03:18;;;;;;;21.05;14.40;;;8.50;67.10;;;;;;6097117;23;20089;-78
2022/12/15 15:05:55;;;;;;;19.30;13.45;;;8.40;66.30;;;;;;6096759;23;20004;-76
2022/12/15 15:08:25;;;;;;;18.13;12.48;;;8.40;68.20;;;;;;6096623;23;20447;-75
2022/12/15 15:10:52;;;;;;;17.15;12.05;;;8.40;69.80;;;;;;6095041;23;20018;-76
2022/12/15 15:13:21;;;;;;;19.50;13.02;;;8.40;70.10;;;;;;6097015;23;20002;-78
2022/12/15 15:16:02;;;;;;;17.58;12.60;;;8.40;70.60;;;;;;6095942;23;19998;-76
2022/12/15 15:18:28;;;;;;;16.10;12.25;;;8.50;71.10;;;;;;6095760;23;20600;-77
2022/12/15 15:20:58;;;;;;;18.58;12.93;;;8.50;71.50;;;;;;6094418;23;20011;-77
2022/12/15 15:23:23;;;;;;;16.88;12.48;;;8.50;72.00;;;;;;6095934;23;20014;-77
2022/12/15 15:26:09;;;;;;;17.33;11.90;;;8.50;72.20;;;;;;6095965;23;20339;-76
2022/12/15 15:28:43;;;;;;;17.17;11.95;;;8.50;72.50;;;;;;6095537;23;20007;-77
2022/12/15 15:31:38;;;;;;;16.80;11.90;;;8.50;72.80;;;;;;6094056;23;20432;-77
2022/12/15 15:34:03;;;;;;;15.95;11.98;;;8.50;73.00;;;;;;6082080;23;20428;-77
2022/12/15 15:36:33;;;;;;;17.98;12.55;;;8.50;73.20;;;;;;6094079;23;20086;-77
2022/12/15 15:39:00;;;;;;;15.45;12.30;;;8.50;73.40;;;;;;6093509;23;19998;-78